Aviation Digital Data Service (ADDS)

Output produced by METARs form (1644 UTC 20 January 2019)
found at http://www.aviationweather.gov/metar/data/
 
OTBD 201630Z 31008KT 280V340 CAVOK 16/08 Q1022 NOSIG
TAF OTBD 201100Z 2012/2118 33018KT CAVOK 
     BECMG 2015/2017 29010KT 
     BECMG 2022/2024 31015KT
       
OTBH 201556Z 30010KT 9000 HZ CLR 14/07 A3018 RMK SLP222 T01430071 $
TAF OTBH 201500Z 2015/2121 32009KT 8000 HZ SKC QNH3014INS 
     BECMG 2103/2104 30012KT 9000 HZ SKC QNH3018INS 
     BECMG 2105/2106 31012G18KT 9000 HZ SKC QNH3010INS 
     TEMPO 2108/2113 30015G25KT 
     BECMG 2114/2115 31012KT 8000 HZ SKC QNH3011INS 
     BECMG 2116/2117 30009KT 8000 HZ SKC QNH3011INS 
     BECMG 2120/2121 VRB06KT 8000 HZ SKC QNH3010INS TX20/2109Z TN10/2103Z